createdAt,value
2022-10-17T00:00:13.684Z,50.852772
2022-10-17T00:01:13.705Z,50.852772
2022-10-17T00:02:13.673Z,50.852665
2022-10-17T00:03:13.678Z,50.852722
2022-10-17T00:04:13.653Z,50.852730
2022-10-17T00:05:13.650Z,50.852642
2022-10-17T00:06:13.641Z,50.852676
2022-10-17T00:07:13.626Z,50.852726
2022-10-17T00:08:13.624Z,50.852783
2022-10-17T00:09:13.635Z,50.852768
2022-10-17T00:10:13.598Z,50.852776
2022-10-17T00:11:13.609Z,50.852783
2022-10-17T00:12:13.581Z,50.852772
2022-10-17T00:13:13.580Z,50.852711
2022-10-17T00:14:13.575Z,50.852676
2022-10-17T00:15:13.584Z,50.852802
2022-10-17T00:16:13.553Z,50.852760
2022-10-17T00:17:13.547Z,50.852741
2022-10-17T00:18:13.546Z,50.852699
2022-10-17T00:19:13.526Z,50.852703
2022-10-17T00:20:13.527Z,50.852734
2022-10-17T00:21:13.528Z,50.852753
2022-10-17T00:22:13.506Z,50.852783
2022-10-17T00:23:13.513Z,50.852757
2022-10-17T00:24:13.520Z,50.852760
2022-10-17T00:25:13.529Z,50.852757
2022-10-17T00:26:13.502Z,50.852741
2022-10-17T00:27:13.508Z,50.852699
2022-10-17T00:28:13.449Z,50.852730
2022-10-17T00:29:13.443Z,50.852776
2022-10-17T00:30:13.435Z,50.852749
2022-10-17T00:31:13.437Z,50.852722
2022-10-17T00:32:13.424Z,50.852711
2022-10-17T00:33:13.426Z,50.852692
2022-10-17T00:34:13.412Z,50.852737
2022-10-17T00:35:13.397Z,50.852753
2022-10-17T00:36:13.391Z,50.852764
2022-10-17T00:37:13.398Z,50.852753
2022-10-17T00:38:13.371Z,50.852840
2022-10-17T00:39:13.362Z,50.852844
2022-10-17T00:40:13.354Z,50.852718
2022-10-17T00:41:13.354Z,50.852745
2022-10-17T00:42:13.344Z,50.852650
2022-10-17T00:43:13.334Z,50.852844
2022-10-17T00:44:13.309Z,50.852776
2022-10-17T00:45:13.326Z,50.852875
2022-10-17T00:46:13.295Z,50.852917
2022-10-17T00:47:13.289Z,50.853031
2022-10-17T00:48:13.283Z,50.852966
2022-10-17T00:49:13.297Z,50.852993
2022-10-17T00:50:13.265Z,50.852856
2022-10-17T00:51:13.257Z,50.852783
2022-10-17T00:52:13.267Z,50.852783
2022-10-17T00:53:13.250Z,50.852669
2022-10-17T00:54:13.231Z,50.852570
2022-10-17T00:55:13.224Z,50.852665
2022-10-17T00:56:13.205Z,50.852634
2022-10-17T00:57:13.209Z,50.852665
2022-10-17T00:58:13.218Z,50.852814
2022-10-17T00:59:13.184Z,50.852867
2022-10-17T01:00:13.173Z,50.852894
2022-10-17T01:01:13.206Z,50.852848
2022-10-17T01:02:13.159Z,50.852905
2022-10-17T01:03:13.151Z,50.852810
2022-10-17T01:04:13.186Z,50.852886
2022-10-17T01:05:13.125Z,50.852921
2022-10-17T01:06:13.115Z,50.852871
2022-10-17T01:07:13.117Z,50.852901
2022-10-17T01:08:13.110Z,50.852821
2022-10-17T01:09:13.094Z,50.852898
2022-10-17T01:10:13.160Z,50.852875
2022-10-17T01:11:13.107Z,50.852886
2022-10-17T01:12:13.070Z,50.852940
2022-10-17T01:13:13.069Z,50.852974
2022-10-17T01:14:13.054Z,50.852921
2022-10-17T01:15:13.046Z,50.852940
2022-10-17T01:16:13.033Z,50.852844
2022-10-17T01:17:13.050Z,50.852806
2022-10-17T01:18:13.027Z,50.852928
2022-10-17T01:19:13.038Z,50.852791
2022-10-17T01:20:13.001Z,50.852795
2022-10-17T01:21:12.998Z,50.852757
2022-10-17T01:22:12.985Z,50.852722
2022-10-17T01:23:12.977Z,50.852749
2022-10-17T01:24:12.994Z,50.852787
2022-10-17T01:25:12.957Z,50.852844
2022-10-17T01:26:12.951Z,50.852741
2022-10-17T01:27:12.952Z,50.852745
2022-10-17T01:28:12.932Z,50.852753
2022-10-17T01:29:12.925Z,50.852776
2022-10-17T01:30:12.938Z,50.852699
2022-10-17T01:31:12.912Z,50.852688
2022-10-17T01:32:12.900Z,50.852703
2022-10-17T01:33:12.892Z,50.852730
2022-10-17T01:34:12.882Z,50.852661
2022-10-17T01:35:12.877Z,50.852673
2022-10-17T01:36:12.891Z,50.852699
2022-10-17T01:37:12.862Z,50.852749
2022-10-17T01:38:12.859Z,50.852757
2022-10-17T01:39:12.844Z,50.852806
2022-10-17T01:40:12.848Z,50.852787
2022-10-17T01:41:12.849Z,50.852791
2022-10-17T01:42:12.810Z,50.852734
2022-10-17T01:43:12.813Z,50.852791
2022-10-17T01:44:12.806Z,50.852604
2022-10-17T01:45:12.810Z,50.852707
2022-10-17T01:46:12.780Z,50.852695
2022-10-17T01:47:12.770Z,50.852715
2022-10-17T01:48:12.760Z,50.852772
2022-10-17T01:49:12.759Z,50.852749
2022-10-17T01:50:12.748Z,50.852707
2022-10-17T01:51:12.770Z,50.852779
2022-10-17T01:52:12.727Z,50.852764
2022-10-17T01:53:12.716Z,50.852760
2022-10-17T01:54:12.710Z,50.852749
2022-10-17T01:55:12.700Z,50.852722
2022-10-17T01:56:12.689Z,50.852654
2022-10-17T01:57:12.703Z,50.852737
2022-10-17T01:58:12.676Z,50.852722
2022-10-17T01:59:12.675Z,50.852776
2022-10-17T02:00:12.661Z,50.852833
2022-10-17T02:01:12.691Z,50.852798
2022-10-17T02:02:12.663Z,50.852783
2022-10-17T02:03:12.630Z,50.852829
2022-10-17T02:04:12.624Z,50.852749
2022-10-17T02:05:12.615Z,50.852814
2022-10-17T02:06:12.625Z,50.852844
2022-10-17T02:07:12.615Z,50.852787
2022-10-17T02:08:12.590Z,50.852840
2022-10-17T02:09:12.608Z,50.852753
2022-10-17T02:10:12.580Z,50.852802
2022-10-17T02:11:12.567Z,50.852783
2022-10-17T02:12:12.554Z,50.852802
2022-10-17T02:13:12.556Z,50.852795
2022-10-17T02:15:12.550Z,50.852863
2022-10-17T02:16:12.519Z,50.852818
2022-10-17T02:17:12.518Z,50.852818
2022-10-17T02:18:12.523Z,50.852768
2022-10-17T02:19:12.525Z,50.852722
2022-10-17T02:20:12.485Z,50.852802
2022-10-17T02:21:12.484Z,50.852768
2022-10-17T02:22:12.469Z,50.852821
2022-10-17T02:23:12.504Z,50.852688
2022-10-17T02:24:12.453Z,50.852913
2022-10-17T02:25:12.443Z,50.852856
2022-10-17T02:26:12.436Z,50.852909
2022-10-17T02:27:12.432Z,50.852917
2022-10-17T02:28:12.421Z,50.852844
2022-10-17T02:29:12.428Z,50.852787
2022-10-17T02:30:12.400Z,50.852844
2022-10-17T02:31:12.393Z,50.852711
2022-10-17T02:32:12.469Z,50.852673
2022-10-17T02:33:12.376Z,50.852711
2022-10-17T02:34:12.365Z,50.852779
2022-10-17T02:35:12.358Z,50.852764
2022-10-17T02:36:12.341Z,50.852818
2022-10-17T02:37:12.344Z,50.852734
2022-10-17T02:38:12.353Z,50.852741
2022-10-17T02:39:12.321Z,50.852753
2022-10-17T02:40:12.313Z,50.852768
2022-10-17T02:41:12.322Z,50.852737
2022-10-17T02:42:12.303Z,50.852715
2022-10-17T02:43:12.292Z,50.852699
2022-10-17T02:44:12.305Z,50.852718
2022-10-17T02:45:12.281Z,50.852760
2022-10-17T02:46:12.263Z,50.852753
2022-10-17T02:47:12.255Z,50.852753
2022-10-17T02:48:12.262Z,50.852737
2022-10-17T02:49:12.238Z,50.852753
2022-10-17T02:50:12.221Z,50.852753
2022-10-17T02:51:12.229Z,50.852768
2022-10-17T02:52:12.202Z,50.852753
2022-10-17T02:53:12.199Z,50.852757
2022-10-17T02:54:12.215Z,50.852730
2022-10-17T02:55:12.192Z,50.852749
2022-10-17T02:56:12.169Z,50.852779
2022-10-17T02:57:12.167Z,50.852695
2022-10-17T02:58:12.179Z,50.852768
2022-10-17T02:59:12.157Z,50.852718
2022-10-17T03:00:12.135Z,50.852806
2022-10-17T03:01:12.168Z,50.852787
2022-10-17T03:02:12.122Z,50.852654
2022-10-17T03:03:12.141Z,50.852722
2022-10-17T03:04:12.122Z,50.852711
2022-10-17T03:05:12.112Z,50.852715
2022-10-17T03:06:12.093Z,50.852753
2022-10-17T03:07:12.084Z,50.852787
2022-10-17T03:08:12.089Z,50.852795
2022-10-17T03:09:12.091Z,50.852779
2022-10-17T03:10:12.048Z,50.852695
2022-10-17T03:11:12.051Z,50.852707
2022-10-17T03:12:12.035Z,50.852783
2022-10-17T03:13:12.048Z,50.852779
2022-10-17T03:14:12.016Z,50.852798
2022-10-17T03:15:12.033Z,50.852764
2022-10-17T03:16:12.002Z,50.852646
2022-10-17T03:17:11.992Z,50.852612
2022-10-17T03:18:11.999Z,50.852680
2022-10-17T03:19:11.988Z,50.852676
2022-10-17T03:20:11.976Z,50.852722
2022-10-17T03:21:11.988Z,50.852776
2022-10-17T03:22:11.979Z,50.852749
2022-10-17T03:23:11.943Z,50.852699
2022-10-17T03:24:11.958Z,50.852741
2022-10-17T03:25:11.931Z,50.852718
2022-10-17T03:26:11.942Z,50.852772
2022-10-17T03:27:11.913Z,50.852711
2022-10-17T03:28:11.901Z,50.852745
2022-10-17T03:29:11.926Z,50.852837
2022-10-17T03:30:11.904Z,50.852787
2022-10-17T03:31:11.887Z,50.852779
2022-10-17T03:32:11.874Z,50.852718
2022-10-17T03:33:11.862Z,50.852814
2022-10-17T03:34:11.853Z,50.852772
2022-10-17T03:35:14.868Z,50.852791
2022-10-17T03:36:11.866Z,50.852818
2022-10-17T03:37:11.830Z,50.852894
2022-10-17T03:38:11.846Z,50.852810
2022-10-17T03:39:11.816Z,50.852890
2022-10-17T03:40:11.806Z,50.853016
2022-10-17T03:41:11.802Z,50.852959
2022-10-17T03:42:11.799Z,50.852818
2022-10-17T03:43:11.782Z,50.852779
2022-10-17T03:44:11.789Z,50.852673
2022-10-17T03:45:11.765Z,50.852688
2022-10-17T03:46:11.785Z,50.852699
2022-10-17T03:47:14.060Z,50.852787
2022-10-17T03:48:11.752Z,50.852802
2022-10-17T03:49:11.734Z,50.852753
2022-10-17T03:50:11.754Z,50.852753
2022-10-17T03:51:11.716Z,50.852818
2022-10-17T03:52:11.710Z,50.852726
2022-10-17T03:53:11.699Z,50.852798
2022-10-17T03:54:11.677Z,50.852783
2022-10-17T03:55:11.698Z,50.852791
2022-10-17T03:56:11.680Z,50.852768
2022-10-17T03:57:11.670Z,50.852776
2022-10-17T03:58:11.659Z,50.852715
2022-10-17T03:59:11.652Z,50.852680
2022-10-17T04:00:11.661Z,50.852684
2022-10-17T04:01:11.686Z,50.852707
2022-10-17T04:02:11.627Z,50.852764
2022-10-17T04:03:16.288Z,50.852833
2022-10-17T04:04:12.614Z,50.852936
2022-10-17T04:05:11.603Z,50.852936
2022-10-17T04:06:11.615Z,50.852909
2022-10-17T04:07:11.589Z,50.852757
2022-10-17T04:08:11.578Z,50.852753
2022-10-17T04:09:11.568Z,50.852760
2022-10-17T04:10:11.557Z,50.852726
2022-10-17T04:11:11.581Z,50.852745
2022-10-17T04:12:11.568Z,50.852718
2022-10-17T04:13:11.539Z,50.852661
2022-10-17T04:14:11.542Z,50.852730
2022-10-17T04:15:11.531Z,50.852760
2022-10-17T04:16:11.507Z,50.852791
2022-10-17T04:17:11.496Z,50.852852
2022-10-17T04:18:11.516Z,50.852821
2022-10-17T04:19:11.483Z,50.852764
2022-10-17T04:20:11.473Z,50.852715
2022-10-17T04:21:11.468Z,50.852654
2022-10-17T04:22:11.453Z,50.852669
2022-10-17T04:23:11.452Z,50.852573
2022-10-17T04:24:11.462Z,50.852592
2022-10-17T04:25:11.435Z,50.852741
2022-10-17T04:26:11.418Z,50.852844
2022-10-17T04:27:11.419Z,50.852898
2022-10-17T04:28:11.422Z,50.852821
2022-10-17T04:29:11.401Z,50.852852
2022-10-17T04:30:11.414Z,50.852867
2022-10-17T04:31:11.378Z,50.852821
2022-10-17T04:32:11.371Z,50.852692
2022-10-17T04:33:11.364Z,50.852669
2022-10-17T04:34:11.355Z,50.852642
2022-10-17T04:35:11.394Z,50.852798
2022-10-17T04:36:11.328Z,50.852909
2022-10-17T04:37:11.337Z,50.852955
2022-10-17T04:38:11.309Z,50.852955
2022-10-17T04:39:11.319Z,50.852940
2022-10-17T04:40:11.293Z,50.852909
2022-10-17T04:41:11.322Z,50.852898
2022-10-17T04:42:11.278Z,50.852894
2022-10-17T04:43:11.297Z,50.852940
2022-10-17T04:44:11.291Z,50.852859
2022-10-17T04:45:11.254Z,50.852833
2022-10-17T04:46:11.250Z,50.852806
2022-10-17T04:47:11.242Z,50.852840
2022-10-17T04:48:11.243Z,50.852898
2022-10-17T04:49:11.247Z,50.852890
2022-10-17T04:50:11.219Z,50.852974
2022-10-17T04:51:11.213Z,50.852886
2022-10-17T04:52:11.219Z,50.852844
2022-10-17T04:53:11.199Z,50.852859
2022-10-17T04:54:11.180Z,50.852852
2022-10-17T04:55:11.175Z,50.852776
2022-10-17T04:56:11.167Z,50.852783
2022-10-17T04:57:11.179Z,50.852795
2022-10-17T04:58:11.157Z,50.852856
2022-10-17T04:59:11.147Z,50.852856
2022-10-17T05:00:11.135Z,50.852825
2022-10-17T05:01:11.228Z,50.852806
2022-10-17T05:02:11.124Z,50.852825
2022-10-17T05:03:11.103Z,50.852814
2022-10-17T05:04:11.099Z,50.852852
2022-10-17T05:05:11.119Z,50.852837
2022-10-17T05:06:11.091Z,50.852795
2022-10-17T05:07:11.075Z,50.852757
2022-10-17T05:08:11.071Z,50.852837
2022-10-17T05:09:11.060Z,50.852844
2022-10-17T05:10:11.055Z,50.852810
2022-10-17T05:11:11.056Z,50.852825
2022-10-17T05:12:11.067Z,50.852859
2022-10-17T05:13:11.034Z,50.852802
2022-10-17T05:14:11.021Z,50.852749
2022-10-17T05:15:11.059Z,50.852802
2022-10-17T05:16:11.007Z,50.852745
2022-10-17T05:17:10.999Z,50.852699
2022-10-17T05:18:10.986Z,50.852707
2022-10-17T05:19:10.984Z,50.852730
2022-10-17T05:20:10.973Z,50.852665
2022-10-17T05:21:10.991Z,50.852810
2022-10-17T05:22:10.967Z,50.852684
2022-10-17T05:23:10.953Z,50.852757
2022-10-17T05:24:10.947Z,50.852737
2022-10-17T05:25:10.936Z,50.852783
2022-10-17T05:26:10.942Z,50.852810
2022-10-17T05:27:10.924Z,50.852806
2022-10-17T05:28:10.909Z,50.852825
2022-10-17T05:29:10.953Z,50.852795
2022-10-17T05:30:10.888Z,50.852787
2022-10-17T05:31:10.897Z,50.852688
2022-10-17T05:32:10.903Z,50.852741
2022-10-17T05:33:10.875Z,50.852688
2022-10-17T05:34:13.172Z,50.852703
2022-10-17T05:35:10.855Z,50.852859
2022-10-17T05:36:10.844Z,50.852768
2022-10-17T05:37:10.866Z,50.852764
2022-10-17T05:38:10.829Z,50.852753
2022-10-17T05:39:10.834Z,50.852699
2022-10-17T05:40:10.812Z,50.852764
2022-10-17T05:41:10.834Z,50.852798
2022-10-17T05:42:10.795Z,50.852818
2022-10-17T05:43:10.793Z,50.852856
2022-10-17T05:44:10.777Z,50.852814
2022-10-17T05:45:10.781Z,50.852810
2022-10-17T05:46:10.781Z,50.852806
2022-10-17T05:47:10.771Z,50.852840
2022-10-17T05:48:10.752Z,50.852795
2022-10-17T05:49:19.797Z,50.852810
2022-10-17T05:50:11.734Z,50.852833
2022-10-17T05:51:10.729Z,50.852821
2022-10-17T05:52:10.740Z,50.852795
2022-10-17T05:53:10.723Z,50.852783
2022-10-17T05:54:10.699Z,50.852768
2022-10-17T05:55:10.705Z,50.852798
2022-10-17T05:56:10.682Z,50.852848
2022-10-17T05:57:10.669Z,50.852840
2022-10-17T05:58:17.673Z,50.852776
2022-10-17T05:59:10.653Z,50.852783
2022-10-17T06:00:10.649Z,50.852757
2022-10-17T06:01:12.783Z,50.852753
2022-10-17T06:02:10.672Z,50.852818
2022-10-17T06:03:10.648Z,50.852825
2022-10-17T06:04:10.611Z,50.852722
2022-10-17T06:05:10.618Z,50.852776
2022-10-17T06:06:10.604Z,50.852745
2022-10-17T06:07:10.648Z,50.852753
2022-10-17T06:08:10.587Z,50.852753
2022-10-17T06:09:10.584Z,50.852722
2022-10-17T06:10:10.561Z,50.852619
2022-10-17T06:11:10.768Z,50.852654
2022-10-17T06:12:10.554Z,50.852661
2022-10-17T06:13:10.569Z,50.852757
2022-10-17T06:14:10.559Z,50.852711
2022-10-17T06:15:10.538Z,50.852848
2022-10-17T06:16:10.534Z,50.852749
2022-10-17T06:17:15.592Z,50.852856
2022-10-17T06:18:11.505Z,50.852783
2022-10-17T06:19:10.536Z,50.852749
2022-10-17T06:20:10.503Z,50.852665
2022-10-17T06:21:10.497Z,50.852722
2022-10-17T06:22:10.492Z,50.852753
2022-10-17T06:23:10.473Z,50.852760
2022-10-17T06:24:10.477Z,50.852646
2022-10-17T06:25:10.457Z,50.852715
2022-10-17T06:26:10.448Z,50.852768
2022-10-17T06:27:11.866Z,50.852711
2022-10-17T06:28:10.444Z,50.852798
2022-10-17T06:29:10.599Z,50.852749
2022-10-17T06:30:10.413Z,50.852791
2022-10-17T06:31:10.406Z,50.852760
2022-10-17T06:32:12.757Z,50.852909
2022-10-17T06:33:10.387Z,50.852901
2022-10-17T06:34:10.399Z,50.852684
2022-10-17T06:35:10.369Z,50.852634
2022-10-17T06:36:10.393Z,50.852745
2022-10-17T06:37:10.349Z,50.852741
2022-10-17T06:38:10.346Z,50.852638
2022-10-17T06:39:10.357Z,50.852711
2022-10-17T06:40:10.353Z,50.852783
2022-10-17T06:41:10.321Z,50.852772
2022-10-17T06:42:10.314Z,50.852650
2022-10-17T06:43:10.299Z,50.852856
2022-10-17T06:44:10.291Z,50.852764
2022-10-17T06:45:10.309Z,50.852783
2022-10-17T06:46:10.280Z,50.852703
2022-10-17T06:47:10.284Z,50.852798
2022-10-17T06:48:10.266Z,50.852615
2022-10-17T06:49:10.267Z,50.852772
2022-10-17T06:50:10.272Z,50.852570
2022-10-17T06:51:10.238Z,50.852734
2022-10-17T06:52:10.229Z,50.852692
2022-10-17T06:53:10.238Z,50.852627
2022-10-17T06:54:10.212Z,50.852760
2022-10-17T06:55:10.204Z,50.852711
2022-10-17T06:56:10.219Z,50.852634
2022-10-17T06:57:10.188Z,50.852634
2022-10-17T06:58:10.186Z,50.852604
2022-10-17T06:59:10.185Z,50.852711
2022-10-17T07:00:10.161Z,50.852604
2022-10-17T07:01:10.192Z,50.852497
2022-10-17T07:02:10.145Z,50.852631
2022-10-17T07:03:10.130Z,50.852657
2022-10-17T07:04:10.146Z,50.852680
2022-10-17T07:05:10.116Z,50.852715
2022-10-17T07:06:10.107Z,50.852734
2022-10-17T07:07:10.100Z,50.852707
2022-10-17T07:08:10.094Z,50.852680
2022-10-17T07:09:10.085Z,50.852692
2022-10-17T07:10:10.091Z,50.852680
2022-10-17T07:11:10.069Z,50.852711
2022-10-17T07:12:10.089Z,50.852749
2022-10-17T07:13:10.054Z,50.852730
2022-10-17T07:14:10.036Z,50.852749
2022-10-17T07:15:10.034Z,50.852715
2022-10-17T07:16:10.041Z,50.852718
2022-10-17T07:17:10.023Z,50.852749
2022-10-17T07:18:10.026Z,50.852680
2022-10-17T07:19:09.995Z,50.852722
2022-10-17T07:20:09.986Z,50.852673
2022-10-17T07:21:09.977Z,50.852562
2022-10-17T07:22:09.969Z,50.852592
2022-10-17T07:23:09.984Z,50.852612
2022-10-17T07:24:09.956Z,50.852573
2022-10-17T07:25:09.983Z,50.852596
2022-10-17T07:26:09.933Z,50.852684
2022-10-17T07:27:09.927Z,50.852734
2022-10-17T07:28:09.920Z,50.852753
2022-10-17T07:29:09.912Z,50.852768
2022-10-17T07:30:09.895Z,50.852745
2022-10-17T07:31:09.916Z,50.852734
2022-10-17T07:32:09.900Z,50.852680
2022-10-17T07:33:09.873Z,50.852737
2022-10-17T07:34:09.882Z,50.852627
2022-10-17T07:35:09.864Z,50.852684
2022-10-17T07:36:09.840Z,50.852657
2022-10-17T07:37:09.878Z,50.852654
2022-10-17T07:38:09.835Z,50.852654
2022-10-17T07:39:09.857Z,50.852650
2022-10-17T07:40:09.822Z,50.852829
2022-10-17T07:41:09.809Z,50.852749
2022-10-17T07:42:09.802Z,50.852734
2022-10-17T07:43:09.793Z,50.852772
2022-10-17T07:44:09.785Z,50.852722
2022-10-17T07:45:09.784Z,50.852814
2022-10-17T07:46:09.765Z,50.852650
2022-10-17T07:47:09.767Z,50.852688
2022-10-17T07:48:09.757Z,50.852669
2022-10-17T07:49:09.757Z,50.852840
2022-10-17T07:50:09.742Z,50.852741
2022-10-17T07:51:09.732Z,50.852806
2022-10-17T07:52:09.728Z,50.852722
2022-10-17T07:53:09.708Z,50.852787
2022-10-17T07:54:09.700Z,50.852734
2022-10-17T07:55:09.702Z,50.852699
2022-10-17T07:56:09.688Z,50.852665
2022-10-17T07:57:09.741Z,50.852802
2022-10-17T07:58:09.668Z,50.852722
2022-10-17T07:59:09.754Z,50.852669
2022-10-17T08:00:09.661Z,50.852669
2022-10-17T08:01:13.759Z,50.852711
2022-10-17T08:02:10.647Z,50.852661
2022-10-17T08:03:09.642Z,50.852715
2022-10-17T08:04:09.635Z,50.852749
2022-10-17T08:05:09.616Z,50.852730
2022-10-17T08:06:09.619Z,50.852596
2022-10-17T08:07:21.761Z,50.852737
2022-10-17T08:08:10.599Z,50.852726
2022-10-17T08:09:09.600Z,50.852726
2022-10-17T08:11:09.598Z,50.852882
2022-10-17T08:12:09.601Z,50.852692
2022-10-17T08:13:09.563Z,50.852749
2022-10-17T08:14:09.553Z,50.852760
2022-10-17T08:15:09.555Z,50.852795
2022-10-17T08:16:09.544Z,50.852695
2022-10-17T08:17:09.535Z,50.852863
2022-10-17T08:18:09.534Z,50.852764
2022-10-17T08:20:09.514Z,50.852440
2022-10-17T08:21:09.508Z,50.852615
2022-10-17T08:22:09.531Z,50.852688
2022-10-17T08:23:09.511Z,50.852688
2022-10-17T08:24:09.481Z,50.852688
2022-10-17T08:25:09.495Z,50.852688
2022-10-17T08:26:09.471Z,50.852688
2022-10-17T08:27:09.472Z,50.852688
2022-10-17T08:28:09.456Z,50.852688
2022-10-17T08:29:09.547Z,50.852688
2022-10-17T08:30:09.440Z,50.852688
2022-10-17T08:31:09.446Z,50.852688
2022-10-17T08:32:09.930Z,50.852688
2022-10-17T08:33:09.426Z,50.852688
2022-10-17T08:34:09.415Z,50.852688
2022-10-17T08:35:09.425Z,50.852688
2022-10-17T08:36:09.399Z,50.852688
2022-10-17T08:38:12.250Z,50.852688
2022-10-17T08:39:09.412Z,50.852688
2022-10-17T08:40:09.375Z,50.852688
2022-10-17T08:41:09.368Z,50.852688
2022-10-17T08:42:09.361Z,50.852688
2022-10-17T08:43:09.360Z,50.852688
2022-10-17T08:44:09.345Z,50.852688
2022-10-17T08:45:09.354Z,50.852688
2022-10-17T08:46:09.363Z,50.852688
2022-10-17T08:47:09.338Z,50.852688
2022-10-17T08:48:09.316Z,50.852688
2022-10-17T08:49:12.082Z,50.852688
2022-10-17T08:50:09.322Z,50.852688
2022-10-17T08:51:09.309Z,50.852688
2022-10-17T08:52:09.285Z,50.852688
2022-10-17T08:53:09.275Z,50.852688
2022-10-17T08:54:09.272Z,50.852688
2022-10-17T08:55:09.353Z,50.852688
2022-10-17T08:56:11.970Z,50.852688
2022-10-17T08:57:10.273Z,50.852688
2022-10-17T08:58:09.244Z,50.852688
2022-10-17T08:59:09.234Z,50.852688
2022-10-17T09:00:09.225Z,50.852688
2022-10-17T09:01:13.108Z,50.852688
2022-10-17T09:02:09.213Z,50.852654
2022-10-17T09:03:09.269Z,50.852737
2022-10-17T09:04:09.315Z,50.852749
2022-10-17T09:05:09.192Z,50.852814
2022-10-17T09:06:09.203Z,50.852715
2022-10-17T09:07:09.185Z,50.852688
2022-10-17T09:08:09.180Z,50.852776
2022-10-17T09:09:09.171Z,50.852814
2022-10-17T09:10:09.181Z,50.852791
2022-10-17T09:11:09.158Z,50.852818
2022-10-17T09:12:09.161Z,50.852757
2022-10-17T09:13:09.161Z,50.852825
2022-10-17T09:14:09.156Z,50.852795
2022-10-17T09:15:09.127Z,50.852802
2022-10-17T09:16:09.111Z,50.852623
2022-10-17T09:17:09.125Z,50.852737
2022-10-17T09:18:09.102Z,50.852604
2022-10-17T09:19:09.110Z,50.852798
2022-10-17T09:20:09.089Z,50.852760
2022-10-17T09:21:09.091Z,50.852737
2022-10-17T09:22:09.070Z,50.852692
2022-10-17T09:23:09.083Z,50.852680
2022-10-17T09:24:15.385Z,50.852745
2022-10-17T09:25:10.057Z,50.852760
2022-10-17T09:26:09.048Z,50.852737
2022-10-17T09:27:09.037Z,50.852814
2022-10-17T09:28:09.028Z,50.852825
2022-10-17T09:29:09.117Z,50.852791
2022-10-17T09:30:13.040Z,50.852772
2022-10-17T09:31:10.017Z,50.852825
2022-10-17T09:32:09.037Z,50.852840
2022-10-17T09:33:08.999Z,50.852806
2022-10-17T09:34:08.994Z,50.852718
2022-10-17T09:35:08.987Z,50.852749
2022-10-17T09:36:08.969Z,50.852699
2022-10-17T09:37:08.965Z,50.852612
2022-10-17T09:38:08.978Z,50.852657
2022-10-17T09:39:08.956Z,50.852665
2022-10-17T09:40:08.955Z,50.852665
2022-10-17T09:41:25.552Z,50.852737
2022-10-17T09:42:09.933Z,50.852737
2022-10-17T09:43:08.933Z,50.852718
2022-10-17T09:44:08.939Z,50.852695
2022-10-17T09:45:08.915Z,50.852695
2022-10-17T09:46:08.912Z,50.852722
2022-10-17T09:47:08.902Z,50.852737
2022-10-17T09:48:08.894Z,50.852676
2022-10-17T09:49:10.285Z,50.852665
2022-10-17T09:50:08.898Z,50.852673
2022-10-17T09:51:21.842Z,50.852673
2022-10-17T09:52:09.860Z,50.852676
2022-10-17T09:53:08.857Z,50.852711
2022-10-17T09:54:08.843Z,50.852745
2022-10-17T09:55:08.856Z,50.852699
2022-10-17T09:56:08.828Z,50.852669
2022-10-17T09:57:08.827Z,50.852711
2022-10-17T09:58:08.829Z,50.852715
2022-10-17T09:59:13.558Z,50.852699
2022-10-17T10:00:09.835Z,50.852703
2022-10-17T10:01:08.838Z,50.852711
2022-10-17T10:02:08.785Z,50.852753
2022-10-17T10:03:08.797Z,50.852852
2022-10-17T10:04:08.776Z,50.852707
2022-10-17T10:05:08.882Z,50.852745
2022-10-17T10:06:08.768Z,50.852722
2022-10-17T10:07:08.752Z,50.852802
2022-10-17T10:08:08.747Z,50.852703
2022-10-17T10:09:08.805Z,50.852600
2022-10-17T10:10:08.732Z,50.852829
2022-10-17T10:11:13.344Z,50.852882
2022-10-17T10:12:09.718Z,50.852650
2022-10-17T10:13:08.708Z,50.852798
2022-10-17T10:14:08.704Z,50.852764
2022-10-17T10:15:08.723Z,50.852875
2022-10-17T10:16:08.693Z,50.852776
2022-10-17T10:17:08.689Z,50.852982
2022-10-17T10:18:08.687Z,50.853050
2022-10-17T10:19:09.238Z,50.852959
2022-10-17T10:20:08.669Z,50.852997
2022-10-17T10:21:08.753Z,50.852959
2022-10-17T10:22:08.648Z,50.853046
2022-10-17T10:23:08.658Z,50.852978
2022-10-17T10:24:08.651Z,50.853062
2022-10-17T10:25:08.638Z,50.853088
2022-10-17T10:26:09.446Z,50.853065
2022-10-17T10:27:08.639Z,50.853043
2022-10-17T10:28:08.615Z,50.853096
2022-10-17T10:29:08.681Z,50.853279
2022-10-17T10:30:08.604Z,50.853077
2022-10-17T10:31:08.593Z,50.853279
2022-10-17T10:32:08.601Z,50.853058
2022-10-17T10:33:08.587Z,50.852993
2022-10-17T10:34:08.563Z,50.852921
2022-10-17T10:35:08.565Z,50.852974
2022-10-17T10:36:08.560Z,50.853073
2022-10-17T10:37:10.525Z,50.853004
2022-10-17T10:38:08.559Z,50.853016
2022-10-17T10:39:08.531Z,50.853092
2022-10-17T10:40:08.527Z,50.853119
2022-10-17T10:41:08.523Z,50.853008
2022-10-17T10:42:08.519Z,50.853065
2022-10-17T10:43:08.545Z,50.853065
2022-10-17T10:44:08.503Z,50.853065
2022-10-17T10:45:09.441Z,50.853065
2022-10-17T10:46:09.482Z,50.853065
2022-10-17T10:47:08.482Z,50.852711
2022-10-17T10:48:08.516Z,50.852623
2022-10-17T10:49:08.464Z,50.852760
2022-10-17T10:50:08.460Z,50.852795
2022-10-17T10:51:08.448Z,50.852795
2022-10-17T10:52:08.447Z,50.852795
2022-10-17T10:53:08.435Z,50.852795
2022-10-17T10:54:08.446Z,50.852795
2022-10-17T10:55:08.419Z,50.852795
2022-10-17T10:56:08.429Z,50.852795
2022-10-17T10:57:08.419Z,50.852795
2022-10-17T10:58:08.404Z,50.852795
2022-10-17T10:59:08.400Z,50.852795
2022-10-17T11:00:08.393Z,50.852795
2022-10-17T11:01:08.443Z,50.852795
2022-10-17T11:02:08.393Z,50.852795
2022-10-17T11:03:11.813Z,50.852795
2022-10-17T11:04:08.363Z,50.852795
2022-10-17T11:05:08.356Z,50.852795
2022-10-17T11:06:08.344Z,50.852795
2022-10-17T11:07:08.390Z,50.852795
2022-10-17T11:08:08.330Z,50.852795
2022-10-17T11:09:08.325Z,50.852795
2022-10-17T11:10:08.321Z,50.852795
2022-10-17T11:11:08.312Z,50.852722
2022-10-17T11:12:08.312Z,50.852715
2022-10-17T11:13:08.327Z,50.852753
2022-10-17T11:14:11.678Z,50.852684
2022-10-17T11:15:08.288Z,50.852711
2022-10-17T11:16:08.299Z,50.852715
2022-10-17T11:17:08.288Z,50.852745
2022-10-17T11:18:08.263Z,50.852764
2022-10-17T11:19:08.250Z,50.852764
2022-10-17T11:20:08.237Z,50.852749
2022-10-17T11:21:08.239Z,50.852779
2022-10-17T11:22:08.243Z,50.852722
2022-10-17T11:23:08.255Z,50.852749
2022-10-17T11:24:09.058Z,50.852711
2022-10-17T11:25:08.209Z,50.852699
2022-10-17T11:26:08.201Z,50.852715
2022-10-17T11:27:08.193Z,50.852699
2022-10-17T11:28:08.202Z,50.852734